Aviation Digital Data Service (ADDS)

Output produced by METARs form (1811 UTC 19 August 2019)
found at http://www.aviationweather.gov/metar/data/
 
METAR text: ZYCC 191800Z VRB01MPS CAVOK 15/14 Q1013 NOSIG
Conditions at: ZYCC (CHANGCHUN , CN) observed 1800 UTC 19 August 2019
Temperature: 15.0°C (59°F)
Dewpoint: 14.0°C (57°F) [RH = 94%]
Pressure (altimeter): 29.91 inches Hg (1013.0 mb)
Winds: variable direction winds at 2 MPH (2 knots; 1.0 m/s)
Visibility: 6 or more miles (10+ km)
Ceiling: ceiling and visibility are OK
Clouds: unknown
Weather: no significant weather observed at this time

METAR text: ZYCC 191700Z 10001MPS CAVOK 16/15 Q1013 NOSIG
Conditions at: ZYCC (CHANGCHUN , CN) observed 1700 UTC 19 August 2019
Temperature: 16.0°C (61°F)
Dewpoint: 15.0°C (59°F) [RH = 94%]
Pressure (altimeter): 29.91 inches Hg (1013.0 mb)
Winds: from the E (100 degrees) at 2 MPH (2 knots; 1.0 m/s)
Visibility: 6 or more miles (10+ km)
Ceiling: ceiling and visibility are OK
Clouds: unknown
Weather: no significant weather observed at this time

METAR text: ZYCC 191600Z VRB01MPS CAVOK 16/15 Q1013 NOSIG
Conditions at: ZYCC (CHANGCHUN , CN) observed 1600 UTC 19 August 2019
Temperature: 16.0°C (61°F)
Dewpoint: 15.0°C (59°F) [RH = 94%]
Pressure (altimeter): 29.91 inches Hg (1013.0 mb)
Winds: variable direction winds at 2 MPH (2 knots; 1.0 m/s)
Visibility: 6 or more miles (10+ km)
Ceiling: ceiling and visibility are OK
Clouds: unknown
Weather: no significant weather observed at this time

METAR text: ZYCC 191500Z 11001MPS CAVOK 16/15 Q1013 NOSIG
Conditions at: ZYCC (CHANGCHUN , CN) observed 1500 UTC 19 August 2019
Temperature: 16.0°C (61°F)
Dewpoint: 15.0°C (59°F) [RH = 94%]
Pressure (altimeter): 29.91 inches Hg (1013.0 mb)
Winds: from the ESE (110 degrees) at 2 MPH (2 knots; 1.0 m/s)
Visibility: 6 or more miles (10+ km)
Ceiling: ceiling and visibility are OK
Clouds: unknown
Weather: no significant weather observed at this time

METAR text: ZYCC 191400Z VRB01MPS CAVOK 17/15 Q1013 NOSIG
Conditions at: ZYCC (CHANGCHUN , CN) observed 1400 UTC 19 August 2019
Temperature: 17.0°C (63°F)
Dewpoint: 15.0°C (59°F) [RH = 88%]
Pressure (altimeter): 29.91 inches Hg (1013.0 mb)
Winds: variable direction winds at 2 MPH (2 knots; 1.0 m/s)
Visibility: 6 or more miles (10+ km)
Ceiling: ceiling and visibility are OK
Clouds: unknown
Weather: no significant weather observed at this time

METAR text: ZYCC 191300Z VRB01MPS CAVOK 18/15 Q1013 NOSIG
Conditions at: ZYCC (CHANGCHUN , CN) observed 1300 UTC 19 August 2019
Temperature: 18.0°C (64°F)
Dewpoint: 15.0°C (59°F) [RH = 83%]
Pressure (altimeter): 29.91 inches Hg (1013.0 mb)
Winds: variable direction winds at 2 MPH (2 knots; 1.0 m/s)
Visibility: 6 or more miles (10+ km)
Ceiling: ceiling and visibility are OK
Clouds: unknown
Weather: no significant weather observed at this time

METAR text: ZYCC 191200Z VRB01MPS CAVOK 19/16 Q1013 NOSIG
Conditions at: ZYCC (CHANGCHUN , CN) observed 1200 UTC 19 August 2019
Temperature: 19.0°C (66°F)
Dewpoint: 16.0°C (61°F) [RH = 83%]
Pressure (altimeter): 29.91 inches Hg (1013.0 mb)
Winds: variable direction winds at 2 MPH (2 knots; 1.0 m/s)
Visibility: 6 or more miles (10+ km)
Ceiling: ceiling and visibility are OK
Clouds: unknown
Weather: no significant weather observed at this time

METAR text: ZYCC 191100Z 35001MPS CAVOK 19/16 Q1012 NOSIG
Conditions at: ZYCC (CHANGCHUN , CN) observed 1100 UTC 19 August 2019
Temperature: 19.0°C (66°F)
Dewpoint: 16.0°C (61°F) [RH = 83%]
Pressure (altimeter): 29.88 inches Hg (1012.0 mb)
Winds: from the N (350 degrees) at 2 MPH (2 knots; 1.0 m/s)
Visibility: 6 or more miles (10+ km)
Ceiling: ceiling and visibility are OK
Clouds: unknown
Weather: no significant weather observed at this time

METAR text: ZYCC 191000Z 03002MPS CAVOK 22/16 Q1012 NOSIG
Conditions at: ZYCC (CHANGCHUN , CN) observed 1000 UTC 19 August 2019
Temperature: 22.0°C (72°F)
Dewpoint: 16.0°C (61°F) [RH = 69%]
Pressure (altimeter): 29.88 inches Hg (1012.0 mb)
Winds: from the NNE (30 degrees) at 5 MPH (4 knots; 2.1 m/s)
Visibility: 6 or more miles (10+ km)
Ceiling: ceiling and visibility are OK
Clouds: unknown
Weather: no significant weather observed at this time

METAR text: ZYCC 190900Z 04002MPS 9999 FEW030 24/16 Q1012 NOSIG
Conditions at: ZYCC (CHANGCHUN , CN) observed 0900 UTC 19 August 2019
Temperature: 24.0°C (75°F)
Dewpoint: 16.0°C (61°F) [RH = 61%]
Pressure (altimeter): 29.88 inches Hg (1012.0 mb)
Winds: from the NE (40 degrees) at 5 MPH (4 knots; 2.1 m/s)
Visibility: 6 or more miles (10+ km)
Ceiling: at least 12,000 feet AGL
Clouds: few clouds at 3000 feet AGL
Weather: no significant weather observed at this time

METAR text: ZYCC 190800Z 04003MPS 010V080 9999 SCT023 25/15 Q1012 NOSIG
Conditions at: ZYCC (CHANGCHUN , CN) observed 0800 UTC 19 August 2019
Temperature: 25.0°C (77°F)
Dewpoint: 15.0°C (59°F) [RH = 54%]
Pressure (altimeter): 29.88 inches Hg (1012.0 mb)
Winds: from the NE (40 degrees) at 7 MPH (6 knots; 3.1 m/s)
Visibility: 6 or more miles (10+ km)
Ceiling: at least 12,000 feet AGL
Clouds: scattered clouds at 2300 feet AGL
Weather: no significant weather observed at this time

METAR text: ZYCC 190700Z 07003MPS 9999 SCT023 25/15 Q1012 NOSIG
Conditions at: ZYCC (CHANGCHUN , CN) observed 0700 UTC 19 August 2019
Temperature: 25.0°C (77°F)
Dewpoint: 15.0°C (59°F) [RH = 54%]
Pressure (altimeter): 29.88 inches Hg (1012.0 mb)
Winds: from the ENE (70 degrees) at 7 MPH (6 knots; 3.1 m/s)
Visibility: 6 or more miles (10+ km)
Ceiling: at least 12,000 feet AGL
Clouds: scattered clouds at 2300 feet AGL
Weather: no significant weather observed at this time

METAR text: ZYCC 190600Z 06002MPS 020V130 9999 FEW023 25/15 Q1012 NOSIG
Conditions at: ZYCC (CHANGCHUN , CN) observed 0600 UTC 19 August 2019
Temperature: 25.0°C (77°F)
Dewpoint: 15.0°C (59°F) [RH = 54%]
Pressure (altimeter): 29.88 inches Hg (1012.0 mb)
Winds: from the ENE (60 degrees) at 5 MPH (4 knots; 2.1 m/s)
Visibility: 6 or more miles (10+ km)
Ceiling: at least 12,000 feet AGL
Clouds: few clouds at 2300 feet AGL
Weather: no significant weather observed at this time

METAR text: ZYCC 190500Z 05002MPS 310V090 9999 FEW023 25/15 Q1012 NOSIG
Conditions at: ZYCC (CHANGCHUN , CN) observed 0500 UTC 19 August 2019
Temperature: 25.0°C (77°F)
Dewpoint: 15.0°C (59°F) [RH = 54%]
Pressure (altimeter): 29.88 inches Hg (1012.0 mb)
Winds: from the NE (50 degrees) at 5 MPH (4 knots; 2.1 m/s)
Visibility: 6 or more miles (10+ km)
Ceiling: at least 12,000 feet AGL
Clouds: few clouds at 2300 feet AGL
Weather: no significant weather observed at this time

METAR text: ZYCC 190400Z VRB01MPS 9999 SCT023 25/16 Q1012 NOSIG
Conditions at: ZYCC (CHANGCHUN , CN) observed 0400 UTC 19 August 2019
Temperature: 25.0°C (77°F)
Dewpoint: 16.0°C (61°F) [RH = 57%]
Pressure (altimeter): 29.88 inches Hg (1012.0 mb)
Winds: variable direction winds at 2 MPH (2 knots; 1.0 m/s)
Visibility: 6 or more miles (10+ km)
Ceiling: at least 12,000 feet AGL
Clouds: scattered clouds at 2300 feet AGL
Weather: no significant weather observed at this time

METAR text: ZYCC 190300Z 06002MPS 010V120 9999 SCT023 23/17 Q1012 NOSIG
Conditions at: ZYCC (CHANGCHUN , CN) observed 0300 UTC 19 August 2019
Temperature: 23.0°C (73°F)
Dewpoint: 17.0°C (63°F) [RH = 69%]
Pressure (altimeter): 29.88 inches Hg (1012.0 mb)
Winds: from the ENE (60 degrees) at 5 MPH (4 knots; 2.1 m/s)
Visibility: 6 or more miles (10+ km)
Ceiling: at least 12,000 feet AGL
Clouds: scattered clouds at 2300 feet AGL
Weather: no significant weather observed at this time

METAR text: ZYCC 190200Z VRB01MPS 9999 SCT023 22/17 Q1012 NOSIG
Conditions at: ZYCC (CHANGCHUN , CN) observed 0200 UTC 19 August 2019
Temperature: 22.0°C (72°F)
Dewpoint: 17.0°C (63°F) [RH = 73%]
Pressure (altimeter): 29.88 inches Hg (1012.0 mb)
Winds: variable direction winds at 2 MPH (2 knots; 1.0 m/s)
Visibility: 6 or more miles (10+ km)
Ceiling: at least 12,000 feet AGL
Clouds: scattered clouds at 2300 feet AGL
Weather: no significant weather observed at this time

METAR text: ZYCC 190100Z VRB01MPS 9999 SCT020 21/18 Q1012 NOSIG
Conditions at: ZYCC (CHANGCHUN , CN) observed 0100 UTC 19 August 2019
Temperature: 21.0°C (70°F)
Dewpoint: 18.0°C (64°F) [RH = 83%]
Pressure (altimeter): 29.88 inches Hg (1012.0 mb)
Winds: variable direction winds at 2 MPH (2 knots; 1.0 m/s)
Visibility: 6 or more miles (10+ km)
Ceiling: at least 12,000 feet AGL
Clouds: scattered clouds at 2000 feet AGL
Weather: no significant weather observed at this time

METAR text: ZYCC 190000Z VRB01MPS 6000 SCT003 BKN020 20/18 Q1012 NOSIG
Conditions at: ZYCC (CHANGCHUN , CN) observed 0000 UTC 19 August 2019
Temperature: 20.0°C (68°F)
Dewpoint: 18.0°C (64°F) [RH = 88%]
Pressure (altimeter): 29.88 inches Hg (1012.0 mb)
Winds: variable direction winds at 2 MPH (2 knots; 1.0 m/s)
Visibility: 4 miles ( 6 km)
Ceiling: 2000 feet AGL
Clouds: scattered clouds at 300 feet AGL
broken clouds at 2000 feet AGL
Weather: no significant weather observed at this time

METAR text: ZYCC 182300Z VRB01MPS 1000 R24/P2000 BR SCT002 19/17 Q1011 BECMG TL0030 1600
Conditions at: ZYCC (CHANGCHUN , CN) observed 2300 UTC 18 August 2019
Temperature: 19.0°C (66°F)
Dewpoint: 17.0°C (63°F) [RH = 88%]
Pressure (altimeter): 29.85 inches Hg (1011.0 mb)
Winds: variable direction winds at 2 MPH (2 knots; 1.0 m/s)
Visibility: 0.62 miles (1.00 km)
Ceiling: at least 12,000 feet AGL
Clouds: scattered clouds at 200 feet AGL
Weather: BR  (mist)

METAR text: ZYCC 182200Z 00000MPS 0600 R06/1100VP2000U FG SCT002 17/16 Q1011 NOSIG
Conditions at: ZYCC (CHANGCHUN , CN) observed 2200 UTC 18 August 2019
Temperature: 17.0°C (63°F)
Dewpoint: 16.0°C (61°F) [RH = 94%]
Pressure (altimeter): 29.85 inches Hg (1011.0 mb)
Winds: calm
Visibility: 0.37 miles (0.60 km)
Ceiling: at least 12,000 feet AGL
Clouds: scattered clouds at 200 feet AGL
Weather: FG  (fog)

METAR text: ZYCC 182100Z 00000MPS 2000 BR SCT030 16/15 Q1010 BECMG TL2200 3000 BR
Conditions at: ZYCC (CHANGCHUN , CN) observed 2100 UTC 18 August 2019
Temperature: 16.0°C (61°F)
Dewpoint: 15.0°C (59°F) [RH = 94%]
Pressure (altimeter): 29.82 inches Hg (1010.0 mb)
Winds: calm
Visibility: 1.24 miles (2.00 km)
Ceiling: at least 12,000 feet AGL
Clouds: scattered clouds at 3000 feet AGL
Weather: BR  (mist)

METAR text: ZYCC 182000Z VRB01MPS 4000 BR SCT030 16/15 Q1009 BECMG TL2100 2800 BR
Conditions at: ZYCC (CHANGCHUN , CN) observed 2000 UTC 18 August 2019
Temperature: 16.0°C (61°F)
Dewpoint: 15.0°C (59°F) [RH = 94%]
Pressure (altimeter): 29.79 inches Hg (1009.0 mb)
Winds: variable direction winds at 2 MPH (2 knots; 1.0 m/s)
Visibility: 2.49 miles (4.01 km)
Ceiling: at least 12,000 feet AGL
Clouds: scattered clouds at 3000 feet AGL
Weather: BR  (mist)

METAR text: ZYCC 181900Z 34001MPS 4000 BR SCT030 16/15 Q1009 NOSIG
Conditions at: ZYCC (CHANGCHUN , CN) observed 1900 UTC 18 August 2019
Temperature: 16.0°C (61°F)
Dewpoint: 15.0°C (59°F) [RH = 94%]
Pressure (altimeter): 29.79 inches Hg (1009.0 mb)
Winds: from the NNW (340 degrees) at 2 MPH (2 knots; 1.0 m/s)
Visibility: 2.49 miles (4.01 km)
Ceiling: at least 12,000 feet AGL
Clouds: scattered clouds at 3000 feet AGL
Weather: BR  (mist)

METAR text: ZYCC 181800Z VRB01MPS 9999 SCT030 17/15 Q1008 NOSIG
Conditions at: ZYCC (CHANGCHUN , CN) observed 1800 UTC 18 August 2019
Temperature: 17.0°C (63°F)
Dewpoint: 15.0°C (59°F) [RH = 88%]
Pressure (altimeter): 29.76 inches Hg (1008.0 mb)
Winds: variable direction winds at 2 MPH (2 knots; 1.0 m/s)
Visibility: 6 or more miles (10+ km)
Ceiling: at least 12,000 feet AGL
Clouds: scattered clouds at 3000 feet AGL
Weather: no significant weather observed at this time

METAR text: ZYCC 181700Z 24003MPS 9999 SCT030 17/15 Q1008 NOSIG
Conditions at: ZYCC (CHANGCHUN , CN) observed 1700 UTC 18 August 2019
Temperature: 17.0°C (63°F)
Dewpoint: 15.0°C (59°F) [RH = 88%]
Pressure (altimeter): 29.76 inches Hg (1008.0 mb)
Winds: from the WSW (240 degrees) at 7 MPH (6 knots; 3.1 m/s)
Visibility: 6 or more miles (10+ km)
Ceiling: at least 12,000 feet AGL
Clouds: scattered clouds at 3000 feet AGL
Weather: no significant weather observed at this time

METAR text: ZYCC 181600Z 21002MPS 180V250 9999 SCT030 18/16 Q1008 NOSIG
Conditions at: ZYCC (CHANGCHUN , CN) observed 1600 UTC 18 August 2019
Temperature: 18.0°C (64°F)
Dewpoint: 16.0°C (61°F) [RH = 88%]
Pressure (altimeter): 29.76 inches Hg (1008.0 mb)
Winds: from the SSW (210 degrees) at 5 MPH (4 knots; 2.1 m/s)
Visibility: 6 or more miles (10+ km)
Ceiling: at least 12,000 feet AGL
Clouds: scattered clouds at 3000 feet AGL
Weather: no significant weather observed at this time

METAR text: ZYCC 181500Z 20003MPS 180V250 9999 SCT030 18/16 Q1008 NOSIG
Conditions at: ZYCC (CHANGCHUN , CN) observed 1500 UTC 18 August 2019
Temperature: 18.0°C (64°F)
Dewpoint: 16.0°C (61°F) [RH = 88%]
Pressure (altimeter): 29.76 inches Hg (1008.0 mb)
Winds: from the SSW (200 degrees) at 7 MPH (6 knots; 3.1 m/s)
Visibility: 6 or more miles (10+ km)
Ceiling: at least 12,000 feet AGL
Clouds: scattered clouds at 3000 feet AGL
Weather: no significant weather observed at this time

METAR text: ZYCC 181400Z 19002MPS 090V250 9999 BKN026 FEW026CB 18/16 Q1008 NOSIG
Conditions at: ZYCC (CHANGCHUN , CN) observed 1400 UTC 18 August 2019
Temperature: 18.0°C (64°F)
Dewpoint: 16.0°C (61°F) [RH = 88%]
Pressure (altimeter): 29.76 inches Hg (1008.0 mb)
Winds: from the S (190 degrees) at 5 MPH (4 knots; 2.1 m/s)
Visibility: 6 or more miles (10+ km)
Ceiling: 2600 feet AGL
Clouds: broken clouds at 2600 feet AGL
few clouds at 2600 feet AGL
Weather: no significant weather observed at this time

METAR text: ZYCC 181300Z VRB01MPS 9999 -SHRA BKN026 FEW026CB 18/17 Q1007 RETSRA NOSIG
Conditions at: ZYCC (CHANGCHUN , CN) observed 1300 UTC 18 August 2019
Temperature: 18.0°C (64°F)
Dewpoint: 17.0°C (63°F) [RH = 94%]
Pressure (altimeter): 29.73 inches Hg (1007.0 mb)
Winds: variable direction winds at 2 MPH (2 knots; 1.0 m/s)
Visibility: 6 or more miles (10+ km)
Ceiling: 2600 feet AGL
Clouds: broken clouds at 2600 feet AGL
few clouds at 2600 feet AGL
Weather: -SHRA  (light rain showers)

METAR text: ZYCC 181200Z VRB01MPS 7000 -TSRA BKN026 FEW026CB 18/16 Q1007 BECMG TL1240 -SHRA
Conditions at: ZYCC (CHANGCHUN , CN) observed 1200 UTC 18 August 2019
Temperature: 18.0°C (64°F)
Dewpoint: 16.0°C (61°F) [RH = 88%]
Pressure (altimeter): 29.73 inches Hg (1007.0 mb)
Winds: variable direction winds at 2 MPH (2 knots; 1.0 m/s)
Visibility: 4 miles ( 7 km)
Ceiling: 2600 feet AGL
Clouds: broken clouds at 2600 feet AGL
few clouds at 2600 feet AGL
Weather: -TSRA  (light rain associated with thunderstorm(s))

METAR text: ZYCC 181100Z 19003MPS 130V260 5000 -TSRA BR FEW005 BKN026 SCT026CB 18/16 Q1007 RESHRA BECMG TL1140 -SHRA
Conditions at: ZYCC (CHANGCHUN , CN) observed 1100 UTC 18 August 2019
Temperature: 18.0°C (64°F)
Dewpoint: 16.0°C (61°F) [RH = 88%]
Pressure (altimeter): 29.73 inches Hg (1007.0 mb)
Winds: from the S (190 degrees) at 7 MPH (6 knots; 3.1 m/s)
Visibility: 3 miles ( 5 km)
Ceiling: 2600 feet AGL
Clouds: few clouds at 500 feet AGL
broken clouds at 2600 feet AGL
scattered clouds at 2600 feet AGL
Weather: -TSRA BR  (light rain associated with thunderstorm(s), mist)

METAR text: ZYCC 181000Z VRB02MPS 4000 TSRA BR BKN026 FEW026CB 21/18 Q1005 BECMG TL1140 -SHRA
Conditions at: ZYCC (CHANGCHUN , CN) observed 1000 UTC 18 August 2019
Temperature: 21.0°C (70°F)
Dewpoint: 18.0°C (64°F) [RH = 83%]
Pressure (altimeter): 29.68 inches Hg (1005.0 mb)
Winds: variable direction winds at 5 MPH (4 knots; 2.1 m/s)
Visibility: 2.49 miles (4.01 km)
Ceiling: 2600 feet AGL
Clouds: broken clouds at 2600 feet AGL
few clouds at 2600 feet AGL
Weather: TSRA BR  (rain associated with thunderstorm(s), mist)

METAR text: ZYCC 180900Z 14002MPS 100V200 9999 SCT026 FEW026CB 23/17 Q1005 NOSIG
Conditions at: ZYCC (CHANGCHUN , CN) observed 0900 UTC 18 August 2019
Temperature: 23.0°C (73°F)
Dewpoint: 17.0°C (63°F) [RH = 69%]
Pressure (altimeter): 29.68 inches Hg (1005.0 mb)
Winds: from the SE (140 degrees) at 5 MPH (4 knots; 2.1 m/s)
Visibility: 6 or more miles (10+ km)
Ceiling: at least 12,000 feet AGL
Clouds: scattered clouds at 2600 feet AGL
few clouds at 2600 feet AGL
Weather: no significant weather observed at this time

METAR text: ZYCC 180800Z 20003MPS 180V240 9999 FEW026TCU SCT026 24/15 Q1005 NOSIG
Conditions at: ZYCC (CHANGCHUN , CN) observed 0800 UTC 18 August 2019
Temperature: 24.0°C (75°F)
Dewpoint: 15.0°C (59°F) [RH = 57%]
Pressure (altimeter): 29.68 inches Hg (1005.0 mb)
Winds: from the SSW (200 degrees) at 7 MPH (6 knots; 3.1 m/s)
Visibility: 6 or more miles (10+ km)
Ceiling: at least 12,000 feet AGL
Clouds: few clouds at 2600 feet AGL
scattered clouds at 2600 feet AGL
Weather: no significant weather observed at this time

METAR text: ZYCC 180700Z VRB02MPS 9999 BKN026 24/17 Q1005 NOSIG
Conditions at: ZYCC (CHANGCHUN , CN) observed 0700 UTC 18 August 2019
Temperature: 24.0°C (75°F)
Dewpoint: 17.0°C (63°F) [RH = 65%]
Pressure (altimeter): 29.68 inches Hg (1005.0 mb)
Winds: variable direction winds at 5 MPH (4 knots; 2.1 m/s)
Visibility: 6 or more miles (10+ km)
Ceiling: 2600 feet AGL
Clouds: broken clouds at 2600 feet AGL
Weather: no significant weather observed at this time

Forecast for: ZYCC (CHANGCHUN , CN)
Text: TAF ZYCC 191313Z 1918/2018 15003MPS 5000 BR FEW023 TX25/2006Z TN16/1920Z
Forecast period: 1800 UTC 19 August 2019 to 1800 UTC 20 August 2019
Forecast type: FROM: standard forecast or significant change
Winds: from the SSE (150 degrees) at 7 MPH (6 knots; 3.1 m/s)
Visibility: 3 miles (5 km)
Ceiling: at least 12,000 feet AGL
Clouds: few clouds at 2300 feet AGL
Weather: BR  (mist)